sensor_id;sensor_type;location;lat;lon;timestamp;P1;durP1;ratioP1;P2;durP2;ratioP2
29314;SDS011;16320;53.954;9.506;2023-06-14T00:02:36;6.40;;;2.78;;
29314;SDS011;16320;53.954;9.506;2023-06-14T00:05:43;12.30;;;2.80;;
29314;SDS011;16320;53.954;9.506;2023-06-14T00:08:49;6.78;;;3.80;;
29314;SDS011;16320;53.954;9.506;2023-06-14T00:11:54;7.93;;;3.05;;
29314;SDS011;16320;53.954;9.506;2023-06-14T00:14:58;6.63;;;2.92;;
29314;SDS011;16320;53.954;9.506;2023-06-14T00:18:05;9.15;;;3.03;;
29314;SDS011;16320;53.954;9.506;2023-06-14T00:21:10;5.88;;;3.15;;
29314;SDS011;16320;53.954;9.506;2023-06-14T00:24:14;4.68;;;2.70;;
29314;SDS011;16320;53.954;9.506;2023-06-14T00:27:19;4.07;;;3.00;;
29314;SDS011;16320;53.954;9.506;2023-06-14T00:30:24;4.93;;;2.90;;
29314;SDS011;16320;53.954;9.506;2023-06-14T00:33:29;5.85;;;2.90;;
29314;SDS011;16320;53.954;9.506;2023-06-14T00:36:34;4.70;;;3.17;;
29314;SDS011;16320;53.954;9.506;2023-06-14T00:42:42;5.57;;;3.88;;
29314;SDS011;16320;53.954;9.506;2023-06-14T00:45:47;7.28;;;3.15;;
29314;SDS011;16320;53.954;9.506;2023-06-14T00:48:53;4.10;;;3.25;;
29314;SDS011;16320;53.954;9.506;2023-06-14T00:51:59;8.80;;;3.17;;
29314;SDS011;16320;53.954;9.506;2023-06-14T00:55:05;5.80;;;2.80;;
29314;SDS011;16320;53.954;9.506;2023-06-14T00:58:10;6.50;;;3.45;;
29314;SDS011;16320;53.954;9.506;2023-06-14T01:01:15;7.85;;;3.40;;
29314;SDS011;16320;53.954;9.506;2023-06-14T01:04:19;4.28;;;3.13;;
29314;SDS011;16320;53.954;9.506;2023-06-14T01:10:47;4.53;;;3.40;;
29314;SDS011;16320;53.954;9.506;2023-06-14T01:14:16;7.25;;;3.70;;
29314;SDS011;16320;53.954;9.506;2023-06-14T01:17:22;6.18;;;3.45;;
29314;SDS011;16320;53.954;9.506;2023-06-14T01:20:28;11.75;;;3.33;;
29314;SDS011;16320;53.954;9.506;2023-06-14T01:23:34;7.93;;;3.75;;
29314;SDS011;16320;53.954;9.506;2023-06-14T01:26:39;6.45;;;3.00;;
29314;SDS011;16320;53.954;9.506;2023-06-14T01:29:51;6.80;;;3.38;;
29314;SDS011;16320;53.954;9.506;2023-06-14T01:33:00;5.05;;;3.15;;
29314;SDS011;16320;53.954;9.506;2023-06-14T01:36:05;6.18;;;3.33;;
29314;SDS011;16320;53.954;9.506;2023-06-14T01:39:12;7.55;;;3.50;;
29314;SDS011;16320;53.954;9.506;2023-06-14T01:42:19;6.10;;;3.38;;
29314;SDS011;16320;53.954;9.506;2023-06-14T01:45:24;7.32;;;3.55;;
29314;SDS011;16320;53.954;9.506;2023-06-14T01:48:28;7.20;;;3.50;;
29314;SDS011;16320;53.954;9.506;2023-06-14T01:51:33;14.25;;;4.18;;
29314;SDS011;16320;53.954;9.506;2023-06-14T01:54:37;6.88;;;3.60;;
29314;SDS011;16320;53.954;9.506;2023-06-14T01:57:46;8.82;;;3.78;;
29314;SDS011;16320;53.954;9.506;2023-06-14T02:00:50;9.32;;;3.63;;
29314;SDS011;16320;53.954;9.506;2023-06-14T02:03:59;8.73;;;4.18;;
29314;SDS011;16320;53.954;9.506;2023-06-14T02:07:03;9.70;;;4.47;;
29314;SDS011;16320;53.954;9.506;2023-06-14T02:10:08;11.27;;;4.45;;
29314;SDS011;16320;53.954;9.506;2023-06-14T02:13:12;8.68;;;4.22;;
29314;SDS011;16320;53.954;9.506;2023-06-14T02:16:17;7.20;;;3.90;;
29314;SDS011;16320;53.954;9.506;2023-06-14T02:19:22;9.60;;;4.28;;
29314;SDS011;16320;53.954;9.506;2023-06-14T02:22:26;9.43;;;4.50;;
29314;SDS011;16320;53.954;9.506;2023-06-14T02:25:31;8.65;;;4.35;;
29314;SDS011;16320;53.954;9.506;2023-06-14T02:28:35;10.52;;;4.13;;
29314;SDS011;16320;53.954;9.506;2023-06-14T02:31:40;6.55;;;4.55;;
29314;SDS011;16320;53.954;9.506;2023-06-14T02:34:45;10.27;;;4.20;;
29314;SDS011;16320;53.954;9.506;2023-06-14T02:37:53;8.52;;;5.18;;
29314;SDS011;16320;53.954;9.506;2023-06-14T02:40:58;11.13;;;4.88;;
29314;SDS011;16320;53.954;9.506;2023-06-14T02:44:04;7.60;;;4.55;;
29314;SDS011;16320;53.954;9.506;2023-06-14T02:47:08;6.90;;;4.80;;
29314;SDS011;16320;53.954;9.506;2023-06-14T02:50:13;10.38;;;4.80;;
29314;SDS011;16320;53.954;9.506;2023-06-14T02:53:18;10.68;;;5.57;;
29314;SDS011;16320;53.954;9.506;2023-06-14T02:56:23;9.00;;;4.25;;
29314;SDS011;16320;53.954;9.506;2023-06-14T02:59:29;9.82;;;5.10;;
29314;SDS011;16320;53.954;9.506;2023-06-14T03:02:34;10.55;;;5.25;;
29314;SDS011;16320;53.954;9.506;2023-06-14T03:08:51;13.35;;;4.78;;
29314;SDS011;16320;53.954;9.506;2023-06-14T03:11:59;7.63;;;5.10;;
29314;SDS011;16320;53.954;9.506;2023-06-14T03:15:03;11.38;;;5.25;;
29314;SDS011;16320;53.954;9.506;2023-06-14T03:18:08;12.70;;;5.03;;
29314;SDS011;16320;53.954;9.506;2023-06-14T03:21:13;10.27;;;5.25;;
29314;SDS011;16320;53.954;9.506;2023-06-14T03:24:19;9.95;;;5.30;;
29314;SDS011;16320;53.954;9.506;2023-06-14T03:27:23;13.43;;;5.85;;
29314;SDS011;16320;53.954;9.506;2023-06-14T03:30:29;12.68;;;6.10;;
29314;SDS011;16320;53.954;9.506;2023-06-14T03:33:35;11.82;;;6.00;;
29314;SDS011;16320;53.954;9.506;2023-06-14T03:36:39;10.50;;;5.80;;
29314;SDS011;16320;53.954;9.506;2023-06-14T03:39:44;9.98;;;5.45;;
29314;SDS011;16320;53.954;9.506;2023-06-14T03:42:50;17.58;;;5.68;;
29314;SDS011;16320;53.954;9.506;2023-06-14T03:48:59;11.50;;;5.90;;
29314;SDS011;16320;53.954;9.506;2023-06-14T03:52:04;11.30;;;6.18;;
29314;SDS011;16320;53.954;9.506;2023-06-14T03:55:09;10.85;;;6.13;;
29314;SDS011;16320;53.954;9.506;2023-06-14T03:58:17;12.38;;;6.30;;
29314;SDS011;16320;53.954;9.506;2023-06-14T04:01:22;11.00;;;6.22;;
29314;SDS011;16320;53.954;9.506;2023-06-14T04:04:31;11.57;;;6.07;;
29314;SDS011;16320;53.954;9.506;2023-06-14T04:07:35;13.05;;;6.07;;
29314;SDS011;16320;53.954;9.506;2023-06-14T04:10:48;11.40;;;6.07;;
29314;SDS011;16320;53.954;9.506;2023-06-14T04:16:57;13.77;;;6.72;;
29314;SDS011;16320;53.954;9.506;2023-06-14T04:20:02;13.10;;;6.68;;
29314;SDS011;16320;53.954;9.506;2023-06-14T04:26:25;11.27;;;6.13;;
29314;SDS011;16320;53.954;9.506;2023-06-14T04:29:33;12.57;;;6.60;;
29314;SDS011;16320;53.954;9.506;2023-06-14T04:32:38;15.07;;;6.45;;
29314;SDS011;16320;53.954;9.506;2023-06-14T04:35:43;11.88;;;6.88;;
29314;SDS011;16320;53.954;9.506;2023-06-14T04:38:51;12.07;;;6.07;;
29314;SDS011;16320;53.954;9.506;2023-06-14T04:41:57;19.25;;;7.20;;
29314;SDS011;16320;53.954;9.506;2023-06-14T04:45:05;12.98;;;6.65;;
29314;SDS011;16320;53.954;9.506;2023-06-14T04:48:10;14.15;;;6.68;;
29314;SDS011;16320;53.954;9.506;2023-06-14T04:51:16;10.05;;;6.38;;
29314;SDS011;16320;53.954;9.506;2023-06-14T04:54:24;14.07;;;6.20;;
29314;SDS011;16320;53.954;9.506;2023-06-14T04:57:29;11.23;;;5.88;;
29314;SDS011;16320;53.954;9.506;2023-06-14T05:00:34;11.70;;;6.68;;
29314;SDS011;16320;53.954;9.506;2023-06-14T05:03:39;11.35;;;6.80;;
29314;SDS011;16320;53.954;9.506;2023-06-14T05:06:45;13.95;;;6.53;;
29314;SDS011;16320;53.954;9.506;2023-06-14T05:09:52;14.68;;;7.60;;
29314;SDS011;16320;53.954;9.506;2023-06-14T05:16:00;12.65;;;6.68;;
29314;SDS011;16320;53.954;9.506;2023-06-14T05:22:09;15.85;;;5.65;;
29314;SDS011;16320;53.954;9.506;2023-06-14T05:25:13;9.57;;;5.30;;
29314;SDS011;16320;53.954;9.506;2023-06-14T05:28:18;14.65;;;5.75;;
29314;SDS011;16320;53.954;9.506;2023-06-14T05:31:23;10.02;;;5.45;;
29314;SDS011;16320;53.954;9.506;2023-06-14T05:34:30;15.25;;;5.82;;
29314;SDS011;16320;53.954;9.506;2023-06-14T05:37:34;19.00;;;6.05;;
29314;SDS011;16320;53.954;9.506;2023-06-14T05:40:39;12.00;;;5.20;;
29314;SDS011;16320;53.954;9.506;2023-06-14T05:43:43;12.73;;;5.40;;
29314;SDS011;16320;53.954;9.506;2023-06-14T05:46:47;8.35;;;4.88;;
29314;SDS011;16320;53.954;9.506;2023-06-14T05:49:52;10.50;;;4.55;;
29314;SDS011;16320;53.954;9.506;2023-06-14T05:52:56;9.20;;;4.50;;
29314;SDS011;16320;53.954;9.506;2023-06-14T05:56:01;20.60;;;4.85;;
29314;SDS011;16320;53.954;9.506;2023-06-14T05:59:05;9.48;;;4.50;;
29314;SDS011;16320;53.954;9.506;2023-06-14T06:02:09;8.05;;;4.45;;
29314;SDS011;16320;53.954;9.506;2023-06-14T06:05:14;9.75;;;4.50;;
29314;SDS011;16320;53.954;9.506;2023-06-14T06:08:21;10.55;;;4.00;;
29314;SDS011;16320;53.954;9.506;2023-06-14T06:11:26;12.07;;;4.22;;
29314;SDS011;16320;53.954;9.506;2023-06-14T06:14:37;9.55;;;4.78;;
29314;SDS011;16320;53.954;9.506;2023-06-14T06:17:41;8.77;;;4.43;;
29314;SDS011;16320;53.954;9.506;2023-06-14T06:20:59;9.57;;;4.03;;
29314;SDS011;16320;53.954;9.506;2023-06-14T06:24:05;15.05;;;4.45;;
29314;SDS011;16320;53.954;9.506;2023-06-14T06:27:09;7.75;;;4.05;;
29314;SDS011;16320;53.954;9.506;2023-06-14T06:30:16;8.93;;;3.88;;
29314;SDS011;16320;53.954;9.506;2023-06-14T06:33:21;9.75;;;3.88;;
29314;SDS011;16320;53.954;9.506;2023-06-14T06:36:25;12.32;;;3.70;;
29314;SDS011;16320;53.954;9.506;2023-06-14T06:39:29;7.28;;;3.78;;
29314;SDS011;16320;53.954;9.506;2023-06-14T06:42:34;6.95;;;3.40;;
29314;SDS011;16320;53.954;9.506;2023-06-14T06:45:38;7.72;;;3.60;;
29314;SDS011;16320;53.954;9.506;2023-06-14T06:48:43;9.88;;;3.97;;
29314;SDS011;16320;53.954;9.506;2023-06-14T06:55:07;6.97;;;3.25;;
29314;SDS011;16320;53.954;9.506;2023-06-14T06:58:13;6.47;;;3.33;;
29314;SDS011;16320;53.954;9.506;2023-06-14T07:01:18;8.18;;;3.70;;
29314;SDS011;16320;53.954;9.506;2023-06-14T07:04:25;4.90;;;2.80;;
29314;SDS011;16320;53.954;9.506;2023-06-14T07:07:29;7.80;;;3.50;;
29314;SDS011;16320;53.954;9.506;2023-06-14T07:10:33;9.00;;;3.17;;
29314;SDS011;16320;53.954;9.506;2023-06-14T07:13:38;6.35;;;3.08;;
29314;SDS011;16320;53.954;9.506;2023-06-14T07:19:46;10.23;;;2.90;;
29314;SDS011;16320;53.954;9.506;2023-06-14T07:22:51;4.22;;;2.75;;
29314;SDS011;16320;53.954;9.506;2023-06-14T07:25:56;4.70;;;2.70;;
29314;SDS011;16320;53.954;9.506;2023-06-14T07:29:00;11.50;;;2.75;;
29314;SDS011;16320;53.954;9.506;2023-06-14T07:32:06;9.07;;;2.97;;
29314;SDS011;16320;53.954;9.506;2023-06-14T07:35:10;6.40;;;3.42;;
29314;SDS011;16320;53.954;9.506;2023-06-14T07:41:19;4.40;;;2.70;;
29314;SDS011;16320;53.954;9.506;2023-06-14T07:44:24;7.22;;;2.70;;
29314;SDS011;16320;53.954;9.506;2023-06-14T07:47:30;5.20;;;2.67;;
29314;SDS011;16320;53.954;9.506;2023-06-14T07:50:34;6.03;;;2.33;;
29314;SDS011;16320;53.954;9.506;2023-06-14T07:56:45;2.90;;;2.35;;
29314;SDS011;16320;53.954;9.506;2023-06-14T07:59:49;3.45;;;2.20;;
29314;SDS011;16320;53.954;9.506;2023-06-14T08:02:54;5.03;;;2.55;;
29314;SDS011;16320;53.954;9.506;2023-06-14T08:06:04;7.43;;;2.47;;
29314;SDS011;16320;53.954;9.506;2023-06-14T08:09:10;5.95;;;2.42;;
29314;SDS011;16320;53.954;9.506;2023-06-14T08:12:16;12.15;;;2.75;;
29314;SDS011;16320;53.954;9.506;2023-06-14T08:15:21;4.43;;;2.70;;
29314;SDS011;16320;53.954;9.506;2023-06-14T08:18:25;8.50;;;2.45;;
29314;SDS011;16320;53.954;9.506;2023-06-14T08:21:30;7.95;;;2.28;;
29314;SDS011;16320;53.954;9.506;2023-06-14T08:24:37;3.08;;;2.63;;
29314;SDS011;16320;53.954;9.506;2023-06-14T08:27:43;3.83;;;2.15;;
29314;SDS011;16320;53.954;9.506;2023-06-14T08:30:48;7.22;;;2.85;;
29314;SDS011;16320;53.954;9.506;2023-06-14T08:33:52;7.10;;;2.63;;
29314;SDS011;16320;53.954;9.506;2023-06-14T08:36:57;8.10;;;3.33;;
29314;SDS011;16320;53.954;9.506;2023-06-14T08:43:09;7.97;;;2.85;;
29314;SDS011;16320;53.954;9.506;2023-06-14T08:46:14;10.02;;;2.90;;
29314;SDS011;16320;53.954;9.506;2023-06-14T08:49:23;3.70;;;2.42;;
29314;SDS011;16320;53.954;9.506;2023-06-14T08:52:31;7.68;;;3.22;;
29314;SDS011;16320;53.954;9.506;2023-06-14T08:55:44;3.92;;;2.45;;
29314;SDS011;16320;53.954;9.506;2023-06-14T08:58:49;5.82;;;2.63;;
29314;SDS011;16320;53.954;9.506;2023-06-14T09:01:53;4.72;;;2.60;;
29314;SDS011;16320;53.954;9.506;2023-06-14T09:05:15;4.05;;;2.70;;
29314;SDS011;16320;53.954;9.506;2023-06-14T09:08:22;6.43;;;3.17;;
29314;SDS011;16320;53.954;9.506;2023-06-14T09:11:27;5.20;;;2.90;;
29314;SDS011;16320;53.954;9.506;2023-06-14T09:14:31;5.18;;;2.88;;
29314;SDS011;16320;53.954;9.506;2023-06-14T09:17:42;7.45;;;2.60;;
29314;SDS011;16320;53.954;9.506;2023-06-14T09:20:47;5.65;;;2.30;;
29314;SDS011;16320;53.954;9.506;2023-06-14T09:23:52;4.95;;;2.70;;
29314;SDS011;16320;53.954;9.506;2023-06-14T09:26:57;6.03;;;2.88;;
29314;SDS011;16320;53.954;9.506;2023-06-14T09:30:02;8.45;;;3.00;;
29314;SDS011;16320;53.954;9.506;2023-06-14T09:33:07;9.35;;;2.40;;
29314;SDS011;16320;53.954;9.506;2023-06-14T09:36:12;6.28;;;2.58;;
29314;SDS011;16320;53.954;9.506;2023-06-14T09:39:21;6.18;;;2.50;;
29314;SDS011;16320;53.954;9.506;2023-06-14T09:42:25;4.45;;;2.22;;
29314;SDS011;16320;53.954;9.506;2023-06-14T09:45:31;7.57;;;2.30;;
29314;SDS011;16320;53.954;9.506;2023-06-14T09:48:35;5.75;;;2.30;;
29314;SDS011;16320;53.954;9.506;2023-06-14T09:51:43;6.70;;;2.28;;
29314;SDS011;16320;53.954;9.506;2023-06-14T09:54:52;8.95;;;2.53;;
29314;SDS011;16320;53.954;9.506;2023-06-14T09:57:58;4.00;;;2.42;;
29314;SDS011;16320;53.954;9.506;2023-06-14T10:01:08;3.30;;;2.40;;
29314;SDS011;16320;53.954;9.506;2023-06-14T10:04:13;3.95;;;2.13;;
29314;SDS011;16320;53.954;9.506;2023-06-14T10:07:20;4.15;;;2.15;;
29314;SDS011;16320;53.954;9.506;2023-06-14T10:10:26;4.05;;;2.25;;
29314;SDS011;16320;53.954;9.506;2023-06-14T10:13:31;8.93;;;2.38;;
29314;SDS011;16320;53.954;9.506;2023-06-14T10:20:23;5.07;;;2.30;;
29314;SDS011;16320;53.954;9.506;2023-06-14T10:23:54;6.10;;;2.88;;
29314;SDS011;16320;53.954;9.506;2023-06-14T10:27:05;3.47;;;2.50;;
29314;SDS011;16320;53.954;9.506;2023-06-14T10:30:14;6.63;;;2.70;;
29314;SDS011;16320;53.954;9.506;2023-06-14T10:33:20;3.47;;;2.33;;
29314;SDS011;16320;53.954;9.506;2023-06-14T10:36:26;4.03;;;2.38;;
29314;SDS011;16320;53.954;9.506;2023-06-14T10:39:39;4.22;;;2.30;;
29314;SDS011;16320;53.954;9.506;2023-06-14T10:42:52;8.30;;;2.58;;
29314;SDS011;16320;53.954;9.506;2023-06-14T10:49:39;5.50;;;2.63;;
29314;SDS011;16320;53.954;9.506;2023-06-14T10:52:52;5.30;;;2.17;;
29314;SDS011;16320;53.954;9.506;2023-06-14T10:55:57;4.85;;;2.35;;
29314;SDS011;16320;53.954;9.506;2023-06-14T10:59:11;4.85;;;2.72;;
29314;SDS011;16320;53.954;9.506;2023-06-14T11:05:27;8.27;;;2.88;;
29314;SDS011;16320;53.954;9.506;2023-06-14T11:12:35;5.60;;;2.03;;
29314;SDS011;16320;53.954;9.506;2023-06-14T11:15:44;7.05;;;2.13;;
29314;SDS011;16320;53.954;9.506;2023-06-14T11:18:57;6.93;;;2.45;;
29314;SDS011;16320;53.954;9.506;2023-06-14T11:22:01;4.95;;;2.78;;
29314;SDS011;16320;53.954;9.506;2023-06-14T11:25:08;4.35;;;2.22;;
29314;SDS011;16320;53.954;9.506;2023-06-14T11:28:13;6.80;;;2.60;;
29314;SDS011;16320;53.954;9.506;2023-06-14T11:31:18;7.45;;;2.30;;
29314;SDS011;16320;53.954;9.506;2023-06-14T11:34:24;9.15;;;2.72;;
29314;SDS011;16320;53.954;9.506;2023-06-14T11:37:29;3.55;;;2.40;;
29314;SDS011;16320;53.954;9.506;2023-06-14T11:40:34;4.90;;;2.30;;
29314;SDS011;16320;53.954;9.506;2023-06-14T11:43:41;4.70;;;2.55;;
29314;SDS011;16320;53.954;9.506;2023-06-14T11:46:46;5.95;;;2.20;;
29314;SDS011;16320;53.954;9.506;2023-06-14T11:49:51;4.00;;;2.33;;
29314;SDS011;16320;53.954;9.506;2023-06-14T11:52:56;2.40;;;2.05;;
29314;SDS011;16320;53.954;9.506;2023-06-14T11:56:07;5.50;;;2.30;;
29314;SDS011;16320;53.954;9.506;2023-06-14T11:59:12;3.67;;;2.25;;
29314;SDS011;16320;53.954;9.506;2023-06-14T12:02:19;7.18;;;2.88;;
29314;SDS011;16320;53.954;9.506;2023-06-14T12:05:28;7.75;;;2.42;;
29314;SDS011;16320;53.954;9.506;2023-06-14T12:08:33;9.15;;;2.17;;
29314;SDS011;16320;53.954;9.506;2023-06-14T12:11:45;7.82;;;2.40;;
29314;SDS011;16320;53.954;9.506;2023-06-14T12:14:49;4.55;;;2.00;;
29314;SDS011;16320;53.954;9.506;2023-06-14T12:17:57;7.53;;;2.50;;
29314;SDS011;16320;53.954;9.506;2023-06-14T12:21:03;4.82;;;2.33;;
29314;SDS011;16320;53.954;9.506;2023-06-14T12:24:13;13.88;;;2.60;;
29314;SDS011;16320;53.954;9.506;2023-06-14T12:27:58;6.03;;;2.55;;
29314;SDS011;16320;53.954;9.506;2023-06-14T12:31:11;6.10;;;2.42;;
29314;SDS011;16320;53.954;9.506;2023-06-14T12:34:18;6.35;;;2.30;;
29314;SDS011;16320;53.954;9.506;2023-06-14T12:37:22;9.98;;;2.42;;
29314;SDS011;16320;53.954;9.506;2023-06-14T12:40:29;5.00;;;2.33;;
29314;SDS011;16320;53.954;9.506;2023-06-14T12:43:37;6.50;;;2.90;;
29314;SDS011;16320;53.954;9.506;2023-06-14T12:46:45;6.93;;;2.20;;
29314;SDS011;16320;53.954;9.506;2023-06-14T12:49:50;3.20;;;1.95;;
29314;SDS011;16320;53.954;9.506;2023-06-14T12:52:55;2.75;;;2.28;;
29314;SDS011;16320;53.954;9.506;2023-06-14T12:55:59;3.35;;;2.42;;
29314;SDS011;16320;53.954;9.506;2023-06-14T12:59:04;6.07;;;2.42;;
29314;SDS011;16320;53.954;9.506;2023-06-14T13:02:11;5.13;;;2.33;;
29314;SDS011;16320;53.954;9.506;2023-06-14T13:05:21;6.20;;;2.58;;
29314;SDS011;16320;53.954;9.506;2023-06-14T13:08:25;4.45;;;2.35;;
29314;SDS011;16320;53.954;9.506;2023-06-14T13:11:29;2.72;;;2.00;;
29314;SDS011;16320;53.954;9.506;2023-06-14T13:14:34;3.95;;;1.98;;
29314;SDS011;16320;53.954;9.506;2023-06-14T13:17:39;2.88;;;2.33;;
29314;SDS011;16320;53.954;9.506;2023-06-14T13:20:51;6.13;;;1.95;;
29314;SDS011;16320;53.954;9.506;2023-06-14T13:23:57;4.97;;;1.98;;
29314;SDS011;16320;53.954;9.506;2023-06-14T13:27:03;3.05;;;1.60;;
29314;SDS011;16320;53.954;9.506;2023-06-14T13:30:09;6.95;;;2.40;;
29314;SDS011;16320;53.954;9.506;2023-06-14T13:33:14;4.10;;;2.22;;
29314;SDS011;16320;53.954;9.506;2023-06-14T13:36:19;3.67;;;1.80;;
29314;SDS011;16320;53.954;9.506;2023-06-14T13:39:23;5.05;;;2.10;;
29314;SDS011;16320;53.954;9.506;2023-06-14T13:42:29;3.45;;;2.03;;
29314;SDS011;16320;53.954;9.506;2023-06-14T13:45:36;4.10;;;2.33;;
29314;SDS011;16320;53.954;9.506;2023-06-14T13:48:58;2.60;;;1.88;;
29314;SDS011;16320;53.954;9.506;2023-06-14T13:52:23;6.20;;;2.55;;
29314;SDS011;16320;53.954;9.506;2023-06-14T13:55:46;8.73;;;2.40;;
29314;SDS011;16320;53.954;9.506;2023-06-14T13:59:09;5.60;;;2.38;;
29314;SDS011;16320;53.954;9.506;2023-06-14T14:02:32;4.18;;;2.10;;
29314;SDS011;16320;53.954;9.506;2023-06-14T14:05:55;5.95;;;2.58;;
29314;SDS011;16320;53.954;9.506;2023-06-14T14:09:17;3.67;;;2.15;;
29314;SDS011;16320;53.954;9.506;2023-06-14T14:12:40;5.75;;;2.40;;
29314;SDS011;16320;53.954;9.506;2023-06-14T14:16:03;3.95;;;1.92;;
29314;SDS011;16320;53.954;9.506;2023-06-14T14:19:30;5.30;;;2.00;;
29314;SDS011;16320;53.954;9.506;2023-06-14T14:22:52;5.90;;;2.30;;
29314;SDS011;16320;53.954;9.506;2023-06-14T14:26:15;5.40;;;2.03;;
29314;SDS011;16320;53.954;9.506;2023-06-14T14:29:37;4.93;;;2.20;;
29314;SDS011;16320;53.954;9.506;2023-06-14T14:32:43;5.07;;;2.70;;
29314;SDS011;16320;53.954;9.506;2023-06-14T14:35:48;8.38;;;2.83;;
29314;SDS011;16320;53.954;9.506;2023-06-14T14:38:53;5.68;;;2.15;;
29314;SDS011;16320;53.954;9.506;2023-06-14T14:42:10;4.68;;;2.45;;
29314;SDS011;16320;53.954;9.506;2023-06-14T14:45:43;8.07;;;2.60;;
29314;SDS011;16320;53.954;9.506;2023-06-14T14:49:32;3.45;;;1.70;;
29314;SDS011;16320;53.954;9.506;2023-06-14T14:57:08;6.70;;;2.40;;
29314;SDS011;16320;53.954;9.506;2023-06-14T15:03:34;10.45;;;2.75;;
29314;SDS011;16320;53.954;9.506;2023-06-14T15:10:51;3.67;;;1.83;;
29314;SDS011;16320;53.954;9.506;2023-06-14T15:13:56;6.22;;;2.35;;
29314;SDS011;16320;53.954;9.506;2023-06-14T15:17:02;5.65;;;2.13;;
29314;SDS011;16320;53.954;9.506;2023-06-14T15:20:23;5.38;;;2.22;;
29314;SDS011;16320;53.954;9.506;2023-06-14T15:23:37;6.18;;;2.03;;
29314;SDS011;16320;53.954;9.506;2023-06-14T15:26:45;8.75;;;2.55;;
29314;SDS011;16320;53.954;9.506;2023-06-14T15:29:49;5.45;;;2.30;;
29314;SDS011;16320;53.954;9.506;2023-06-14T15:33:04;5.97;;;2.67;;
29314;SDS011;16320;53.954;9.506;2023-06-14T15:36:10;4.20;;;2.33;;
29314;SDS011;16320;53.954;9.506;2023-06-14T15:40:11;5.97;;;2.20;;
29314;SDS011;16320;53.954;9.506;2023-06-14T15:43:47;4.57;;;1.85;;
29314;SDS011;16320;53.954;9.506;2023-06-14T15:46:58;3.92;;;2.08;;
29314;SDS011;16320;53.954;9.506;2023-06-14T15:53:59;8.65;;;2.50;;
29314;SDS011;16320;53.954;9.506;2023-06-14T15:57:08;8.02;;;2.58;;
29314;SDS011;16320;53.954;9.506;2023-06-14T16:00:36;4.65;;;2.13;;
29314;SDS011;16320;53.954;9.506;2023-06-14T16:03:49;3.65;;;2.67;;
29314;SDS011;16320;53.954;9.506;2023-06-14T16:07:05;6.47;;;2.20;;
29314;SDS011;16320;53.954;9.506;2023-06-14T16:10:12;5.72;;;2.10;;
29314;SDS011;16320;53.954;9.506;2023-06-14T16:13:43;9.18;;;2.58;;
29314;SDS011;16320;53.954;9.506;2023-06-14T16:17:18;9.18;;;2.53;;
29314;SDS011;16320;53.954;9.506;2023-06-14T16:20:44;5.95;;;2.00;;
29314;SDS011;16320;53.954;9.506;2023-06-14T16:24:33;7.30;;;2.10;;
29314;SDS011;16320;53.954;9.506;2023-06-14T16:33:07;5.53;;;2.50;;
29314;SDS011;16320;53.954;9.506;2023-06-14T16:36:29;8.27;;;2.53;;
29314;SDS011;16320;53.954;9.506;2023-06-14T16:44:31;5.93;;;2.40;;
29314;SDS011;16320;53.954;9.506;2023-06-14T16:48:52;6.10;;;2.60;;
29314;SDS011;16320;53.954;9.506;2023-06-14T16:52:39;4.70;;;2.03;;
29314;SDS011;16320;53.954;9.506;2023-06-14T17:35:44;4.80;;;2.85;;
29314;SDS011;16320;53.954;9.506;2023-06-14T17:38:57;9.73;;;2.63;;
29314;SDS011;16320;53.954;9.506;2023-06-14T17:42:38;3.90;;;2.53;;
29314;SDS011;16320;53.954;9.506;2023-06-14T17:45:59;3.63;;;2.53;;
29314;SDS011;16320;53.954;9.506;2023-06-14T17:49:17;5.85;;;2.50;;
29314;SDS011;16320;53.954;9.506;2023-06-14T17:52:35;8.10;;;3.08;;
29314;SDS011;16320;53.954;9.506;2023-06-14T17:55:44;6.05;;;2.78;;
29314;SDS011;16320;53.954;9.506;2023-06-14T17:58:51;7.70;;;2.70;;
29314;SDS011;16320;53.954;9.506;2023-06-14T18:01:57;7.80;;;2.60;;
29314;SDS011;16320;53.954;9.506;2023-06-14T18:05:03;8.38;;;2.75;;
29314;SDS011;16320;53.954;9.506;2023-06-14T18:08:08;4.85;;;2.45;;
29314;SDS011;16320;53.954;9.506;2023-06-14T18:11:12;6.55;;;2.70;;
29314;SDS011;16320;53.954;9.506;2023-06-14T18:14:17;6.35;;;2.92;;
29314;SDS011;16320;53.954;9.506;2023-06-14T18:17:22;5.80;;;2.25;;
29314;SDS011;16320;53.954;9.506;2023-06-14T18:20:26;4.93;;;2.72;;
29314;SDS011;16320;53.954;9.506;2023-06-14T18:23:32;5.65;;;2.42;;
29314;SDS011;16320;53.954;9.506;2023-06-14T18:26:36;5.93;;;2.53;;
29314;SDS011;16320;53.954;9.506;2023-06-14T18:29:41;7.82;;;2.28;;
29314;SDS011;16320;53.954;9.506;2023-06-14T18:32:46;7.28;;;2.53;;
29314;SDS011;16320;53.954;9.506;2023-06-14T18:35:51;4.13;;;2.13;;
29314;SDS011;16320;53.954;9.506;2023-06-14T18:38:55;7.60;;;2.45;;
29314;SDS011;16320;53.954;9.506;2023-06-14T18:42:00;5.43;;;2.22;;
29314;SDS011;16320;53.954;9.506;2023-06-14T18:45:05;6.72;;;2.15;;
29314;SDS011;16320;53.954;9.506;2023-06-14T18:48:11;6.00;;;2.08;;
29314;SDS011;16320;53.954;9.506;2023-06-14T18:51:19;4.20;;;2.10;;
29314;SDS011;16320;53.954;9.506;2023-06-14T18:54:23;8.48;;;2.28;;
29314;SDS011;16320;53.954;9.506;2023-06-14T18:57:27;6.20;;;2.38;;
29314;SDS011;16320;53.954;9.506;2023-06-14T19:00:32;7.45;;;2.30;;
29314;SDS011;16320;53.954;9.506;2023-06-14T19:03:37;3.55;;;2.15;;
29314;SDS011;16320;53.954;9.506;2023-06-14T19:06:41;2.53;;;1.80;;
29314;SDS011;16320;53.954;9.506;2023-06-14T19:09:49;4.25;;;2.10;;
29314;SDS011;16320;53.954;9.506;2023-06-14T19:12:55;3.72;;;1.83;;
29314;SDS011;16320;53.954;9.506;2023-06-14T19:16:00;4.20;;;2.05;;
29314;SDS011;16320;53.954;9.506;2023-06-14T19:19:04;4.68;;;2.53;;
29314;SDS011;16320;53.954;9.506;2023-06-14T19:22:13;8.23;;;2.05;;
29314;SDS011;16320;53.954;9.506;2023-06-14T19:25:18;2.85;;;2.00;;
29314;SDS011;16320;53.954;9.506;2023-06-14T19:28:27;13.40;;;3.25;;
29314;SDS011;16320;53.954;9.506;2023-06-14T19:31:33;9.60;;;2.33;;
29314;SDS011;16320;53.954;9.506;2023-06-14T19:34:39;8.82;;;2.33;;
29314;SDS011;16320;53.954;9.506;2023-06-14T19:37:48;3.03;;;2.20;;
29314;SDS011;16320;53.954;9.506;2023-06-14T19:40:53;6.93;;;2.50;;
29314;SDS011;16320;53.954;9.506;2023-06-14T19:43:58;3.70;;;2.15;;
29314;SDS011;16320;53.954;9.506;2023-06-14T19:50:38;6.60;;;1.90;;
29314;SDS011;16320;53.954;9.506;2023-06-14T19:53:43;5.65;;;2.67;;
29314;SDS011;16320;53.954;9.506;2023-06-14T19:56:48;2.05;;;1.83;;
29314;SDS011;16320;53.954;9.506;2023-06-14T19:59:52;4.75;;;2.35;;
29314;SDS011;16320;53.954;9.506;2023-06-14T20:02:57;6.57;;;2.55;;
29314;SDS011;16320;53.954;9.506;2023-06-14T20:06:01;3.22;;;2.10;;
29314;SDS011;16320;53.954;9.506;2023-06-14T20:09:06;6.40;;;2.30;;
29314;SDS011;16320;53.954;9.506;2023-06-14T20:12:17;3.40;;;2.35;;
29314;SDS011;16320;53.954;9.506;2023-06-14T20:15:23;9.45;;;3.17;;
29314;SDS011;16320;53.954;9.506;2023-06-14T20:18:27;2.40;;;1.75;;
29314;SDS011;16320;53.954;9.506;2023-06-14T20:21:31;6.03;;;2.15;;
29314;SDS011;16320;53.954;9.506;2023-06-14T20:24:36;7.88;;;2.50;;
29314;SDS011;16320;53.954;9.506;2023-06-14T20:27:41;4.45;;;1.70;;
29314;SDS011;16320;53.954;9.506;2023-06-14T20:30:45;3.95;;;2.38;;
29314;SDS011;16320;53.954;9.506;2023-06-14T20:33:50;4.45;;;2.33;;
29314;SDS011;16320;53.954;9.506;2023-06-14T20:36:54;5.57;;;2.30;;
29314;SDS011;16320;53.954;9.506;2023-06-14T20:40:03;7.68;;;2.28;;
29314;SDS011;16320;53.954;9.506;2023-06-14T20:43:11;4.65;;;2.13;;
29314;SDS011;16320;53.954;9.506;2023-06-14T20:46:16;3.55;;;2.42;;
29314;SDS011;16320;53.954;9.506;2023-06-14T20:49:21;5.47;;;2.42;;
29314;SDS011;16320;53.954;9.506;2023-06-14T20:52:25;5.10;;;2.63;;
29314;SDS011;16320;53.954;9.506;2023-06-14T20:55:31;6.72;;;2.25;;
29314;SDS011;16320;53.954;9.506;2023-06-14T20:58:36;4.85;;;2.58;;